Pagrindinis puslapis
METAR-TAF:

METAR-TAF

Oro uostai :

Manta, Ekvadoras

platuma: 00-57S, ilguma: 080-41W, Aukštis: 13 m

Dabartinis oras

Ataskaita buvo paskelbta 1 valandą ir 12 minutes, ne 21:00 UTC
Vėjas 9 kt iš Vakarų/Šiaurės Vakarų
Temperatūra 29°C
Drėgmė 66%
Slėgis 1010 hPa
Matomumas 10 km arba daugiau
nėra debesų žemiau 1500 m ir nėra kamuolinių lietaus debesų

METAR: SEMT 302100Z 29009KT CAVOK 29/22 Q1010 RMK A2985

Laikas: 17:12 (22:12 UTC)

Prognozė

Ataskaita buvo paskelbta 5 valandos ir 57 minutes, ne 16:15 UTC
Prognozė galioja nuo 30 metu 18 UTC su 31 metu 18 UTC
Vėjas 8 kt iš Pietų/Pietvakarių
Matomumas 10 km arba daugiau
Išsisklaidę debesys ne aukštis 2600 ft
Su prošvaistėmis ne aukštis 10000 ft
Tapsmas
nuo 31 metu 03 UTC su 31 metu 04 UTC
Su prošvaistėmis ne aukštis 2000 ft
Tapsmas
nuo 31 metu 12 UTC su 31 metu 14 UTC
Išsisklaidę debesys ne aukštis 2600 ft
Išsisklaidę debesys ne aukštis 10000 ft

TAF: SEMT 301615Z 3018/3118 21008KT 9999 SCT026 BKN100 BECMG 3103/3104 BKN020 BECMG 3112/3114 SCT026 SCT100 TX30/3020Z TN22/3110Z

Orai ataskaitas ir orų prognozės (METAR, TAF).

turimą stotys yra geltonos ir raudonos taškus žemėlapyje.

Perkelti pele per norėdami pamatyti stoties vardą.

Tada spustelėkite, norėdami matyti oro stebėjimo ir prognozės.

Norėdami pakeisti žemėlapį: spustelėkite ant žalios mygtukų su juodo kryžiaus žemyn,; žalią mygtuką su brūkšneliu, jei norite nutolinti; arba žalių rodyklių gretimoms žemėlapius.


METAR-TAF: